Time;durP1;ratioP1;P1;durP2;ratioP2;P2;SDS_P1;SDS_P2;PMS_P1;PMS_P2;Temp;Humidity;BMP_temperature;BMP_pressure;BME280_temperature;BME280_humidity;BME280_pressure;Samples;Min_cycle;Max_cycle;Signal;HPM_P1;HPM_P2
2023/12/27 00:02:05;;;;;;;3.25;0.90;;;8.00;99.90;;;7.39;100.00;97829.06;4991003;28;20046;-37
2023/12/27 00:04:31;;;;;;;3.38;0.98;;;8.00;99.90;;;7.29;100.00;97835.34;4996304;28;20033;-37
2023/12/27 00:06:57;;;;;;;5.47;1.10;;;7.90;99.90;;;7.20;100.00;97828.47;4991873;28;20049;-37
2023/12/27 00:09:23;;;;;;;2.00;0.98;;;7.80;99.90;;;7.24;100.00;97842.41;4995828;28;20033;-37
2023/12/27 00:11:49;;;;;;;2.92;0.98;;;7.90;99.90;;;7.26;100.00;97848.50;4996770;28;20045;-36
2023/12/27 00:14:15;;;;;;;3.05;1.08;;;7.90;99.90;;;7.25;100.00;97844.16;4987318;28;20034;-37
2023/12/27 00:16:40;;;;;;;3.15;1.00;;;7.90;99.90;;;7.31;100.00;97844.03;4992158;28;20033;-37
2023/12/27 00:19:06;;;;;;;4.35;0.90;;;7.90;99.90;;;7.34;100.00;97837.88;4997242;28;20022;-37
2023/12/27 00:21:32;;;;;;;3.97;1.08;;;7.90;99.90;;;7.28;100.00;97817.84;4997864;28;20162;-37
2023/12/27 00:23:58;;;;;;;3.88;0.80;;;7.90;99.90;;;7.38;100.00;97822.06;4996138;28;20044;-37
2023/12/27 00:26:24;;;;;;;2.03;0.88;;;7.90;99.90;;;7.37;100.00;97822.09;4992263;28;20065;-37
2023/12/27 00:28:49;;;;;;;2.45;0.90;;;7.90;99.90;;;7.33;100.00;97826.50;4988203;28;20045;-37
2023/12/27 00:31:15;;;;;;;3.97;1.10;;;7.90;99.90;;;7.31;100.00;97828.31;4984376;28;20038;-37
2023/12/27 00:33:41;;;;;;;4.22;0.80;;;7.90;99.90;;;7.32;100.00;97834.41;4987139;28;20380;-37
2023/12/27 00:36:08;;;;;;;4.55;1.00;;;7.90;99.90;;;7.31;100.00;97841.41;4983902;28;20025;-37
2023/12/27 00:38:37;;;;;;;2.75;0.93;;;7.90;99.90;;;7.29;100.00;97834.47;4998877;28;20057;-37
2023/12/27 00:41:04;;;;;;;2.72;1.13;;;7.90;99.90;;;7.34;100.00;97837.88;4986820;28;20042;-36
2023/12/27 00:43:30;;;;;;;1.27;0.90;;;7.90;99.90;;;7.34;100.00;97832.63;4988048;28;20041;-37
2023/12/27 00:45:56;;;;;;;2.22;1.00;;;7.90;99.90;;;7.33;100.00;97816.03;4979554;28;20043;-37
2023/12/27 00:48:21;;;;;;;2.03;0.98;;;8.00;99.90;;;7.32;100.00;97819.56;4984576;28;20125;-37
2023/12/27 00:50:47;;;;;;;2.33;0.77;;;7.90;99.90;;;7.36;100.00;97805.47;4993993;28;20034;-37
2023/12/27 00:53:13;;;;;;;2.05;0.90;;;8.00;99.90;;;7.36;100.00;97804.63;4992425;28;20039;-36
2023/12/27 00:55:38;;;;;;;3.28;1.20;;;8.00;99.90;;;7.40;100.00;97814.16;4995868;28;20491;-37
2023/12/27 00:58:04;;;;;;;2.55;0.85;;;8.00;99.90;;;7.40;100.00;97822.03;4988990;28;20081;-37
2023/12/27 01:00:30;;;;;;;3.33;1.02;;;8.00;99.90;;;7.41;100.00;97819.38;4995170;28;20363;-37
2023/12/27 01:02:55;;;;;;;2.67;0.90;;;8.00;99.90;;;7.42;100.00;97825.50;4995172;28;20561;-37
2023/12/27 01:05:21;;;;;;;2.05;1.00;;;8.00;99.90;;;7.37;100.00;97825.56;4997512;28;20087;-36
2023/12/27 01:07:47;;;;;;;3.13;0.98;;;8.00;99.90;;;7.35;100.00;97826.50;4994264;28;20026;-39
2023/12/27 01:10:14;;;;;;;2.28;0.80;;;8.00;99.90;;;7.30;100.00;97823.94;4994898;28;20026;-37
2023/12/27 01:12:40;;;;;;;1.88;0.90;;;7.90;99.90;;;7.24;100.00;97824.91;4993969;28;20870;-37
2023/12/27 01:15:06;;;;;;;1.58;0.63;;;7.80;99.90;;;7.19;100.00;97828.50;4996499;28;20029;-37
2023/12/27 01:17:31;;;;;;;1.85;1.05;;;7.80;99.90;;;7.18;100.00;97825.03;4995690;28;20030;-37
2023/12/27 01:19:57;;;;;;;2.30;1.10;;;7.70;99.90;;;7.18;100.00;97832.03;5006470;28;20297;-37
2023/12/27 01:22:23;;;;;;;1.00;0.80;;;7.70;99.90;;;7.19;100.00;97836.38;5001878;28;20139;-37
2023/12/27 01:24:48;;;;;;;2.10;0.90;;;7.80;99.90;;;7.20;100.00;97831.09;5002373;28;20410;-37
2023/12/27 01:27:14;;;;;;;1.60;0.70;;;7.80;99.90;;;7.25;100.00;97820.56;5000629;28;20040;-37
2023/12/27 01:29:40;;;;;;;1.35;0.75;;;7.80;99.90;;;7.18;100.00;97813.69;4995911;28;20060;-37
2023/12/27 01:32:07;;;;;;;1.73;0.80;;;7.80;99.90;;;7.24;100.00;97822.28;4997072;28;20033;-37
2023/12/27 01:34:32;;;;;;;2.33;0.77;;;7.90;99.90;;;7.32;100.00;97818.66;4998865;28;20137;-36
2023/12/27 01:36:58;;;;;;;2.00;1.00;;;7.90;99.90;;;7.35;100.00;97821.25;4999043;28;20037;-37
2023/12/27 01:39:24;;;;;;;1.40;0.85;;;7.90;99.90;;;7.37;100.00;97811.59;4997775;28;21388;-36
2023/12/27 01:41:49;;;;;;;1.77;0.95;;;7.90;99.90;;;7.35;100.00;97816.84;4993932;28;20040;-36
2023/12/27 01:44:15;;;;;;;1.58;0.63;;;7.90;99.90;;;7.38;100.00;97827.31;4992623;28;20031;-37
2023/12/27 01:46:41;;;;;;;3.10;0.90;;;7.90;99.90;;;7.38;100.00;97823.81;4999202;28;20037;-36
2023/12/27 01:49:07;;;;;;;2.17;0.88;;;7.90;99.90;;;7.32;100.00;97816.94;4994795;28;20336;-37
2023/12/27 01:51:33;;;;;;;2.70;0.85;;;7.90;99.90;;;7.36;100.00;97825.63;4995328;28;20041;-37
2023/12/27 01:54:02;;;;;;;2.95;1.10;;;7.90;99.90;;;7.31;100.00;97812.56;4996154;28;20483;-37
2023/12/27 01:56:28;;;;;;;2.88;1.00;;;7.90;99.90;;;7.26;100.00;97815.25;4989000;28;20034;-36
2023/12/27 01:58:54;;;;;;;0.63;0.55;;;7.80;99.90;;;7.22;100.00;97815.34;4991049;28;20177;-37
2023/12/27 02:01:20;;;;;;;2.28;0.90;;;7.80;99.90;;;7.16;100.00;97815.44;4994897;28;20974;-38
2023/12/27 02:03:46;;;;;;;1.25;0.70;;;7.70;99.90;;;7.10;100.00;97815.53;4996546;28;20038;-37
2023/12/27 02:06:12;;;;;;;1.38;0.73;;;7.60;99.90;;;6.96;100.00;97814.00;4993127;28;20037;-36
2023/12/27 02:08:38;;;;;;;1.20;0.85;;;7.50;99.90;;;6.95;100.00;97825.38;4994319;28;20126;-37
2023/12/27 02:11:04;;;;;;;1.35;0.77;;;7.50;99.90;;;6.88;100.00;97824.63;4995043;28;20065;-37
2023/12/27 02:13:29;;;;;;;1.60;0.73;;;7.40;99.90;;;6.84;100.00;97822.09;4994940;28;20121;-37
2023/12/27 02:15:55;;;;;;;3.47;0.85;;;7.40;99.90;;;6.76;100.00;97813.44;4993138;28;20107;-37
2023/12/27 02:18:21;;;;;;;1.58;0.80;;;7.30;99.90;;;6.71;100.00;97808.25;4989245;28;20550;-38
2023/12/27 02:20:47;;;;;;;3.45;0.85;;;7.30;99.90;;;6.67;100.00;97804.81;4995199;28;20038;-36
2023/12/27 02:24:13;;;;;;;1.38;0.80;;;7.20;99.90;;;6.64;100.00;97804.88;4985331;28;20088;-36
2023/12/27 02:26:38;;;;;;;2.75;0.90;;;7.20;99.90;;;6.55;100.00;97789.31;4976066;28;20037;-36
2023/12/27 02:29:04;;;;;;;2.83;0.90;;;7.20;99.90;;;6.59;100.00;97798.00;4994172;28;20033;-36
2023/12/27 02:31:30;;;;;;;2.72;0.80;;;7.10;99.90;;;6.54;100.00;97803.28;4992888;28;20081;-36
2023/12/27 02:33:56;;;;;;;3.17;1.00;;;7.10;99.90;;;6.53;100.00;97803.31;4992953;28;20175;-37
2023/12/27 02:36:22;;;;;;;0.63;0.50;;;7.10;99.90;;;6.52;100.00;97798.97;4982162;28;20030;-36
2023/12/27 02:38:47;;;;;;;2.05;1.02;;;7.10;99.90;;;6.54;100.00;97805.91;4998735;28;20085;-36
2023/12/27 02:41:14;;;;;;;1.45;0.82;;;7.10;99.90;;;6.56;100.00;97809.38;4992753;28;20026;-36
2023/12/27 02:43:39;;;;;;;2.05;1.00;;;7.10;99.90;;;6.60;100.00;97797.94;4994661;28;20121;-37
2023/12/27 02:46:05;;;;;;;4.70;1.00;;;7.20;99.90;;;6.65;100.00;97797.88;4986325;28;20040;-36
2023/12/27 02:48:31;;;;;;;2.13;1.10;;;7.20;99.90;;;6.68;100.00;97798.72;4995304;28;20087;-36
2023/12/27 02:50:56;;;;;;;2.47;0.90;;;7.30;99.90;;;6.75;100.00;97801.22;4995163;28;20030;-36
2023/12/27 02:53:23;;;;;;;1.52;0.90;;;7.30;99.90;;;6.81;100.00;97796.75;4994934;28;20441;-36
2023/12/27 02:55:49;;;;;;;3.72;1.10;;;7.40;99.90;;;6.75;100.00;97769.75;4992847;28;20033;-36
2023/12/27 02:58:15;;;;;;;1.70;0.70;;;7.40;99.90;;;6.81;100.00;97777.53;4996659;28;20108;-37
2023/12/27 03:00:46;;;;;;;2.30;1.15;;;7.40;99.90;;;6.82;100.00;97781.88;4989874;28;20916;-36
2023/12/27 03:03:12;;;;;;;1.30;0.88;;;7.40;99.90;;;6.78;100.00;97785.44;4996311;28;20116;-37
2023/12/27 03:05:38;;;;;;;2.30;1.25;;;7.40;99.90;;;6.74;100.00;97779.38;4993349;28;20033;-37
2023/12/27 03:08:04;;;;;;;3.65;1.20;;;7.30;99.90;;;6.71;100.00;97773.34;5000129;28;20041;-37
2023/12/27 03:10:30;;;;;;;2.83;1.60;;;7.30;99.90;;;6.66;100.00;97765.56;4991896;28;20041;-37
2023/12/27 03:12:56;;;;;;;2.55;1.23;;;7.30;99.90;;;6.64;100.00;97773.44;5000062;28;20025;-37
2023/12/27 03:15:21;;;;;;;2.72;1.50;;;7.20;99.90;;;6.64;100.00;97764.69;4993388;28;20672;-37
2023/12/27 03:17:47;;;;;;;2.40;1.50;;;7.20;99.90;;;6.61;100.00;97764.75;4995950;28;20076;-36
2023/12/27 03:20:13;;;;;;;2.17;1.33;;;7.20;99.90;;;6.61;100.00;97768.22;4992295;28;20912;-37
2023/12/27 03:22:39;;;;;;;3.55;1.38;;;7.20;99.90;;;6.65;100.00;97763.81;4997689;28;20215;-37
2023/12/27 03:25:05;;;;;;;2.15;1.40;;;7.30;99.90;;;6.69;100.00;97761.13;4987016;28;20434;-37
2023/12/27 03:27:30;;;;;;;2.33;1.23;;;7.30;99.90;;;6.62;100.00;97743.78;4987891;28;20121;-37
2023/12/27 03:29:56;;;;;;;2.20;1.05;;;7.30;99.90;;;6.77;100.00;97765.38;4971276;28;20064;-37
2023/12/27 03:32:24;;;;;;;2.92;1.60;;;7.40;99.90;;;6.82;100.00;97758.28;4989148;28;20060;-37
2023/12/27 03:34:50;;;;;;;2.58;1.27;;;7.40;99.90;;;6.83;100.00;97757.41;4984999;28;20033;-37
2023/12/27 03:37:16;;;;;;;3.20;1.73;;;7.40;99.90;;;6.72;100.00;97738.38;4991022;28;20032;-37
2023/12/27 03:39:46;;;;;;;2.75;1.42;;;7.40;99.90;;;6.81;100.00;97759.19;4998791;28;20038;-37
2023/12/27 03:42:12;;;;;;;3.25;1.60;;;7.40;99.90;;;6.86;100.00;97763.47;4988619;28;20034;-36
2023/12/27 03:44:38;;;;;;;2.95;1.35;;;7.40;99.90;;;6.87;100.00;97764.31;4992993;28;20048;-37
2023/12/27 03:47:04;;;;;;;3.33;1.48;;;7.40;99.90;;;6.83;100.00;97753.03;4995017;28;20091;-37
2023/12/27 03:49:30;;;;;;;4.57;1.20;;;7.50;99.90;;;6.88;100.00;97751.19;4993013;28;20405;-37
2023/12/27 03:51:56;;;;;;;3.25;1.30;;;7.50;99.90;;;6.92;100.00;97752.00;4997347;28;20083;-37
2023/12/27 03:54:21;;;;;;;2.67;1.50;;;7.50;99.90;;;6.94;100.00;97763.34;4991788;28;20090;-37
2023/12/27 03:56:47;;;;;;;3.92;1.58;;;7.50;99.90;;;6.94;100.00;97765.97;5000632;28;20030;-37
2023/12/27 03:59:13;;;;;;;2.83;1.33;;;7.50;99.90;;;6.96;100.00;97764.16;4993434;28;20021;-37
2023/12/27 04:01:39;;;;;;;2.28;1.38;;;7.50;99.90;;;6.98;100.00;97757.16;4998546;28;20060;-37
2023/12/27 04:04:05;;;;;;;3.30;1.40;;;7.50;99.90;;;6.98;100.00;97762.41;4995807;28;20167;-37
2023/12/27 04:06:31;;;;;;;2.20;1.00;;;7.50;99.90;;;6.99;100.00;97756.25;4988980;28;20038;-37
2023/12/27 04:08:56;;;;;;;3.00;1.10;;;7.50;99.90;;;6.99;100.00;97753.63;4996043;28;20041;-37
2023/12/27 04:11:22;;;;;;;3.80;1.30;;;7.50;99.90;;;6.98;100.00;97753.66;4991687;28;20096;-37
2023/12/27 04:13:48;;;;;;;2.47;1.10;;;7.50;99.90;;;6.94;100.00;97744.13;4996561;28;20346;-37
2023/12/27 04:16:14;;;;;;;3.22;1.23;;;7.60;99.90;;;7.00;100.00;97759.75;4996979;28;20044;-37
2023/12/27 04:18:40;;;;;;;2.17;1.05;;;7.60;99.90;;;7.00;100.00;97746.63;4991178;28;20037;-37
2023/12/27 04:21:06;;;;;;;2.25;1.00;;;7.50;99.90;;;6.86;100.00;97721.53;4990890;28;20030;-38
2023/12/27 04:23:31;;;;;;;1.75;1.00;;;7.60;99.90;;;6.99;100.00;97743.16;4990941;28;20045;-37
2023/12/27 04:25:57;;;;;;;3.17;1.13;;;7.50;99.90;;;6.94;100.00;97731.00;4995057;28;20041;-37
2023/12/27 04:28:23;;;;;;;2.50;1.20;;;7.60;99.90;;;6.97;100.00;97726.59;4991872;28;20595;-37
2023/12/27 04:30:49;;;;;;;2.20;0.90;;;7.60;99.90;;;6.99;100.00;97723.94;4999200;28;20042;-37
2023/12/27 04:33:14;;;;;;;3.35;1.30;;;7.60;99.90;;;6.99;100.00;97716.94;4991756;28;20125;-37
2023/12/27 04:35:40;;;;;;;2.80;1.15;;;7.60;99.90;;;7.01;100.00;97717.75;5002407;28;20490;-38
2023/12/27 04:38:06;;;;;;;1.73;1.05;;;7.60;99.90;;;7.02;100.00;97706.38;4995468;28;20036;-37
2023/12/27 04:40:32;;;;;;;0.80;0.70;;;7.60;99.90;;;7.02;100.00;97706.38;4992148;28;20069;-37
2023/12/27 04:42:59;;;;;;;1.35;1.05;;;7.60;99.90;;;7.01;100.00;97709.91;4998714;28;20389;-38
2023/12/27 04:45:25;;;;;;;2.67;1.10;;;7.60;99.90;;;7.01;100.00;97717.75;4990250;28;20386;-37
2023/12/27 04:47:51;;;;;;;2.42;1.08;;;7.60;99.90;;;7.02;100.00;97714.25;4998151;28;20109;-38
2023/12/27 04:50:17;;;;;;;2.45;0.90;;;7.60;99.90;;;6.91;100.00;97703.09;4991449;28;20087;-37
2023/12/27 04:52:43;;;;;;;1.88;1.00;;;7.60;99.90;;;6.82;100.00;97687.50;5000847;28;20046;-37
2023/12/27 04:55:09;;;;;;;2.78;0.90;;;7.60;99.90;;;6.97;100.00;97708.22;5013489;28;20080;-37
2023/12/27 04:57:35;;;;;;;2.35;1.10;;;7.60;99.90;;;7.04;100.00;97719.47;4997745;28;20037;-38
2023/12/27 05:00:00;;;;;;;1.80;1.10;;;7.60;99.90;;;7.03;100.00;97716.00;4992349;28;20275;-38
2023/12/27 05:02:26;;;;;;;1.73;1.00;;;7.60;99.90;;;7.01;100.00;97725.63;4990592;28;20550;-37
2023/12/27 05:04:52;;;;;;;2.22;1.10;;;7.60;99.90;;;6.95;100.00;97728.38;4999708;28;20038;-37
2023/12/27 05:07:17;;;;;;;1.58;0.90;;;7.50;99.90;;;6.89;100.00;97731.06;4994954;28;20433;-37
2023/12/27 05:09:43;;;;;;;3.33;0.95;;;7.50;99.90;;;6.83;100.00;97734.66;4993954;28;21419;-37
2023/12/27 05:12:10;;;;;;;2.67;1.17;;;7.40;99.90;;;6.69;100.00;97724.44;4993995;28;20038;-37
2023/12/27 05:14:36;;;;;;;2.00;0.90;;;7.30;99.90;;;6.54;100.00;97715.94;4997882;28;20057;-37
2023/12/27 05:17:02;;;;;;;2.85;1.10;;;7.20;99.90;;;6.35;100.00;97713.59;4995521;28;20057;-37
2023/12/27 05:19:27;;;;;;;3.50;1.10;;;7.00;99.90;;;6.26;100.00;97727.72;4991325;28;20301;-37
2023/12/27 05:21:54;;;;;;;3.20;1.02;;;6.80;99.90;;;6.11;100.00;97715.69;4998269;28;20304;-37
2023/12/27 05:24:19;;;;;;;3.53;1.20;;;6.70;99.90;;;5.99;100.00;97720.22;4991680;28;20468;-37
2023/12/27 05:26:45;;;;;;;3.40;1.30;;;6.60;99.90;;;5.86;100.00;97722.13;4996118;28;20038;-37
2023/12/27 05:29:10;;;;;;;1.98;1.20;;;6.50;99.90;;;5.76;100.00;97713.53;4983292;28;20036;-37
2023/12/27 05:31:36;;;;;;;4.28;1.40;;;6.30;99.90;;;5.67;100.00;97718.84;4996933;28;20136;-37
2023/12/27 05:34:02;;;;;;;3.38;1.40;;;6.20;99.90;;;5.61;100.00;97721.56;4997409;28;20510;-37
2023/12/27 05:36:28;;;;;;;2.22;1.23;;;6.20;99.90;;;5.53;100.00;97722.50;4998479;28;20136;-37
2023/12/27 05:38:54;;;;;;;2.85;1.30;;;6.10;99.90;;;5.47;100.00;97717.38;5001320;28;21320;-40
2023/12/27 05:41:24;;;;;;;5.28;1.60;;;6.10;99.90;;;5.43;100.00;97725.25;5002172;28;20062;-37
2023/12/27 05:43:51;;;;;;;1.83;1.20;;;6.00;99.90;;;5.36;100.00;97734.91;5000127;28;20162;-37
2023/12/27 05:46:16;;;;;;;5.07;1.10;;;6.00;99.90;;;5.32;100.00;97723.63;4995666;28;20033;-37
2023/12/27 05:48:42;;;;;;;2.70;1.45;;;5.90;99.90;;;5.27;100.00;97728.03;5000497;28;20072;-37
2023/12/27 05:51:08;;;;;;;2.25;1.38;;;5.90;99.90;;;5.15;100.00;97709.84;4998539;28;20077;-37
2023/12/27 05:53:33;;;;;;;2.72;1.63;;;5.90;99.90;;;5.21;100.00;97714.16;4997867;28;20026;-37
2023/12/27 05:55:59;;;;;;;4.13;1.65;;;5.80;99.90;;;5.18;100.00;97716.81;5002264;28;20088;-37
2023/12/27 05:58:26;;;;;;;2.42;1.50;;;5.80;99.90;;;5.13;100.00;97701.16;4997466;28;20068;-37
2023/12/27 06:00:51;;;;;;;5.15;1.70;;;5.80;99.90;;;5.12;100.00;97689.84;5002871;28;20267;-37
2023/12/27 06:03:17;;;;;;;3.15;1.70;;;5.80;99.90;;;5.12;100.00;97692.44;4998320;28;20029;-37
2023/12/27 06:05:43;;;;;;;4.25;1.88;;;5.80;99.90;;;4.99;100.00;97677.78;4998249;28;20644;-37
2023/12/27 06:08:09;;;;;;;3.25;1.80;;;5.70;99.90;;;5.04;100.00;97693.41;5001624;28;20052;-37
2023/12/27 06:10:36;;;;;;;2.85;1.80;;;5.70;99.90;;;5.05;100.00;97701.25;4993439;28;20025;-37
2023/12/27 06:13:02;;;;;;;6.25;2.03;;;5.70;99.90;;;4.93;100.00;97683.06;4998030;28;20037;-37
2023/12/27 06:15:28;;;;;;;3.33;1.90;;;5.70;99.90;;;5.02;100.00;97701.25;4998659;28;20040;-37
2023/12/27 06:17:54;;;;;;;2.45;1.73;;;5.60;99.90;;;5.00;100.00;97705.66;4996825;28;20041;-37
2023/12/27 06:20:20;;;;;;;4.22;1.80;;;5.60;99.90;;;5.00;100.00;97702.19;4996973;28;20072;-37
2023/12/27 06:22:46;;;;;;;7.25;2.03;;;5.60;99.90;;;4.96;100.00;97690.88;4999905;28;20053;-37
2023/12/27 06:25:12;;;;;;;5.65;1.75;;;5.60;99.90;;;4.91;100.00;97687.44;4999274;28;20116;-37
2023/12/27 06:27:40;;;;;;;5.88;1.85;;;5.60;99.90;;;4.87;100.00;97675.28;4996264;28;20038;-38
2023/12/27 06:30:08;;;;;;;5.40;1.90;;;5.50;99.90;;;4.83;100.00;97676.19;4988209;28;20092;-38
2023/12/27 06:32:33;;;;;;;3.08;1.60;;;5.50;99.90;;;4.79;100.00;97667.50;4998210;28;20502;-37
2023/12/27 06:34:59;;;;;;;3.90;1.85;;;5.40;99.90;;;4.73;100.00;97665.81;5001845;28;20064;-37
2023/12/27 06:37:25;;;;;;;4.43;1.70;;;5.40;99.90;;;4.70;100.00;97663.25;4998259;28;20038;-37
2023/12/27 06:39:50;;;;;;;3.20;1.90;;;5.30;99.90;;;4.65;100.00;97669.38;4995021;28;20079;-37
2023/12/27 06:42:16;;;;;;;3.08;1.95;;;5.30;99.90;;;4.59;100.00;97680.75;4996774;28;20481;-37
2023/12/27 06:44:42;;;;;;;6.10;2.63;;;5.30;99.90;;;4.56;100.00;97673.81;4999832;28;20088;-37
2023/12/27 06:47:07;;;;;;;2.80;1.65;;;5.20;99.90;;;4.54;100.00;97672.09;4998705;28;20065;-37
2023/12/27 06:49:33;;;;;;;3.45;1.70;;;5.10;99.90;;;4.47;100.00;97673.03;4991240;28;20502;-37
2023/12/27 06:51:59;;;;;;;5.63;1.70;;;5.20;99.90;;;4.47;100.00;97665.19;4994822;28;20238;-37
2023/12/27 06:54:25;;;;;;;5.13;2.00;;;5.20;99.90;;;4.63;100.00;97682.50;4998268;28;20037;-37
2023/12/27 06:56:50;;;;;;;4.50;1.80;;;5.30;99.90;;;4.70;100.00;97672.81;4999008;28;20072;-37
2023/12/27 06:59:16;;;;;;;3.45;1.80;;;5.30;99.90;;;4.75;100.00;97673.66;5000066;28;20029;-37
2023/12/27 07:01:42;;;;;;;4.88;2.05;;;5.40;99.90;;;4.81;100.00;97675.34;4997729;28;20057;-37
2023/12/27 07:04:08;;;;;;;3.47;1.83;;;5.40;99.90;;;4.84;100.00;97672.69;5000286;28;20045;-37
2023/12/27 07:06:34;;;;;;;2.20;1.65;;;5.50;99.90;;;4.88;100.00;97674.41;4994061;28;20041;-37
2023/12/27 07:09:00;;;;;;;1.83;1.48;;;5.50;99.90;;;4.89;100.00;97671.78;4983954;28;20044;-37
2023/12/27 07:11:25;;;;;;;4.15;1.50;;;5.60;99.90;;;4.91;100.00;97685.69;4995339;28;20046;-37
2023/12/27 07:13:51;;;;;;;2.15;1.60;;;5.60;99.90;;;4.96;100.00;97677.81;4992820;28;20032;-37
2023/12/27 07:16:17;;;;;;;4.18;1.60;;;5.60;99.90;;;4.95;100.00;97683.91;4992034;28;20026;-37
2023/12/27 07:18:42;;;;;;;4.97;1.75;;;5.60;99.90;;;4.97;100.00;97685.66;4995886;28;20084;-37
2023/12/27 07:21:08;;;;;;;3.13;1.77;;;5.60;99.90;;;4.95;100.00;97682.19;4997616;28;20522;-37
2023/12/27 07:23:34;;;;;;;2.63;1.80;;;5.60;99.90;;;4.99;100.00;97685.63;4999005;28;20092;-37
2023/12/27 07:26:00;;;;;;;4.10;1.67;;;5.60;99.90;;;5.02;100.00;97677.72;4999694;28;20220;-37
2023/12/27 07:28:26;;;;;;;6.13;2.33;;;5.70;99.90;;;5.07;100.00;97681.19;4999017;28;20066;-37
2023/12/27 07:30:52;;;;;;;3.47;1.80;;;5.70;99.90;;;5.04;100.00;97675.09;4997624;28;20045;-37
2023/12/27 07:33:18;;;;;;;3.05;1.55;;;5.70;99.90;;;5.14;100.00;97676.75;4979481;28;20042;-35
2023/12/27 07:35:46;;;;;;;4.47;1.67;;;5.80;99.90;;;5.18;100.00;97682.81;4999178;28;20032;-35
2023/12/27 07:38:12;;;;;;;3.47;1.50;;;5.80;99.90;;;5.22;100.00;97684.50;4995384;28;20065;-37
2023/12/27 07:40:39;;;;;;;4.03;1.58;;;5.80;99.90;;;5.19;100.00;97682.81;4994561;28;20121;-37
2023/12/27 07:43:05;;;;;;;3.63;1.60;;;5.90;99.90;;;5.21;100.00;97677.56;5001333;28;20297;-36
2023/12/27 07:45:31;;;;;;;3.28;1.80;;;5.90;99.90;;;5.28;100.00;97680.09;4991641;28;20033;-37
2023/12/27 07:47:57;;;;;;;2.13;1.40;;;5.90;99.90;;;5.28;100.00;97682.69;4998748;28;20557;-37
2023/12/27 07:50:23;;;;;;;4.65;1.75;;;5.90;99.90;;;5.29;100.00;97687.06;4991074;28;20447;-37
2023/12/27 07:52:48;;;;;;;3.70;1.63;;;5.90;99.90;;;5.30;100.00;97685.28;4996355;28;20033;-37
2023/12/27 07:55:14;;;;;;;4.20;1.92;;;5.90;99.90;;;5.29;100.00;97699.25;4992443;28;20084;-37
2023/12/27 07:57:41;;;;;;;7.63;1.92;;;5.90;99.90;;;5.28;100.00;97711.47;4988773;28;20033;-37
2023/12/27 08:00:09;;;;;;;5.55;2.10;;;5.90;99.90;;;5.28;100.00;97713.22;4988659;28;20112;-37
2023/12/27 08:02:35;;;;;;;3.08;1.85;;;5.90;99.90;;;5.26;100.00;97715.84;4989866;28;20034;-37
2023/12/27 08:05:02;;;;;;;4.90;2.08;;;5.90;99.90;;;5.27;100.00;97704.47;4997703;28;20052;-37
2023/12/27 08:07:28;;;;;;;3.45;2.00;;;5.90;99.90;;;5.31;100.00;97707.94;4999246;28;20057;-37
2023/12/27 08:09:53;;;;;;;4.55;1.75;;;5.90;99.90;;;5.33;100.00;97704.44;4991160;28;20064;-37
2023/12/27 08:12:19;;;;;;;3.42;1.92;;;6.00;99.90;;;5.37;100.00;97696.56;4996782;28;20033;-37
2023/12/27 08:14:45;;;;;;;4.60;2.00;;;6.00;99.90;;;5.35;100.00;97699.19;4993712;28;20025;-37
2023/12/27 08:17:10;;;;;;;6.22;2.08;;;6.00;99.90;;;5.25;100.00;97679.25;4996927;28;20029;-37
2023/12/27 08:19:36;;;;;;;5.00;1.90;;;5.90;99.90;;;5.28;100.00;97700.16;4996596;28;20047;-37
2023/12/27 08:22:03;;;;;;;2.88;1.77;;;5.90;99.90;;;5.28;100.00;97702.75;4994302;28;20481;-37
2023/12/27 08:24:29;;;;;;;3.30;1.98;;;5.90;99.90;;;5.32;100.00;97701.84;4995072;28;20044;-37
2023/12/27 08:26:54;;;;;;;3.22;2.00;;;6.00;99.90;;;5.37;100.00;97700.03;4999617;28;20029;-37
2023/12/27 08:29:20;;;;;;;4.05;2.17;;;6.00;99.90;;;5.50;100.00;97709.47;4991737;28;20827;-37
2023/12/27 08:31:46;;;;;;;5.75;2.40;;;6.20;99.90;;;5.65;100.00;97713.66;4993463;28;20038;-37
2023/12/27 08:34:12;;;;;;;4.90;2.30;;;6.20;99.90;;;5.79;100.00;97710.84;4996402;28;20504;-37
2023/12/27 08:36:39;;;;;;;6.30;2.08;;;6.40;99.90;;;5.90;100.00;97714.22;4989833;28;20037;-37
2023/12/27 08:39:05;;;;;;;5.07;2.17;;;6.50;99.90;;;5.91;100.00;97689.75;4977494;28;20535;-37
2023/12/27 08:41:30;;;;;;;3.88;2.40;;;6.60;99.90;;;6.10;100.00;97702.59;4975880;28;20095;-36
2023/12/27 08:43:56;;;;;;;6.05;2.33;;;6.70;99.90;;;6.13;100.00;97686.00;4992748;28;20030;-36
2023/12/27 08:46:22;;;;;;;5.22;1.90;;;6.80;99.90;;;6.29;100.00;97690.13;4987527;28;20479;-37
2023/12/27 08:48:48;;;;;;;8.50;2.20;;;6.90;99.90;;;6.35;100.00;97686.53;4994787;28;20391;-36
2023/12/27 08:51:14;;;;;;;5.47;2.40;;;6.90;99.90;;;6.35;100.00;97676.06;4994625;28;20646;-37
2023/12/27 08:53:39;;;;;;;4.00;2.13;;;6.90;99.90;;;6.30;100.00;97674.38;4993701;28;20109;-36
2023/12/27 08:56:07;;;;;;;4.35;2.40;;;6.90;99.90;;;6.24;100.00;97677.09;4993033;28;20406;-36
2023/12/27 08:58:35;;;;;;;4.22;2.70;;;6.80;99.90;;;6.23;100.00;97674.50;4996514;28;20178;-37
2023/12/27 09:01:02;;;;;;;5.90;2.47;;;6.80;99.90;;;6.23;100.00;97661.41;4994265;28;20067;-37
2023/12/27 09:03:27;;;;;;;5.53;2.65;;;6.80;99.90;;;6.29;100.00;97662.16;4988997;28;20049;-36
2023/12/27 09:05:53;;;;;;;3.42;2.03;;;6.90;99.90;;;6.38;100.00;97650.69;4996178;28;20029;-37
2023/12/27 09:08:19;;;;;;;5.03;2.63;;;6.90;99.90;;;6.43;100.00;97641.00;4992824;28;20084;-37
2023/12/27 09:10:44;;;;;;;5.07;2.13;;;7.00;99.90;;;6.43;100.00;97654.09;4992520;28;20030;-38
2023/12/27 09:13:10;;;;;;;5.28;2.47;;;7.00;99.90;;;6.37;100.00;97654.22;4999147;28;20037;-35
2023/12/27 09:15:36;;;;;;;8.52;2.50;;;7.00;99.90;;;6.38;100.00;97662.91;5002537;28;20184;-35
2023/12/27 09:18:02;;;;;;;5.25;2.33;;;6.90;99.90;;;6.29;100.00;97667.41;5000877;28;20430;-35
2023/12/27 09:20:27;;;;;;;5.47;2.30;;;7.00;99.90;;;6.33;100.00;97664.75;5001582;28;20095;-37
2023/12/27 09:22:53;;;;;;;3.97;2.20;;;7.00;99.90;;;6.38;100.00;97658.53;5000805;28;20385;-37
2023/12/27 09:25:19;;;;;;;2.95;1.92;;;7.00;99.90;;;6.53;100.00;97659.19;4997915;28;20049;-37
2023/12/27 09:27:47;;;;;;;4.28;2.05;;;7.10;99.90;;;6.57;100.00;97638.16;5001052;28;20118;-38
2023/12/27 09:30:12;;;;;;;6.63;2.60;;;7.30;99.90;;;6.72;100.00;97638.78;5001250;28;20029;-37
2023/12/27 09:32:40;;;;;;;5.38;2.28;;;7.30;99.90;;;6.73;100.00;97649.25;4994684;28;20502;-38
2023/12/27 09:35:06;;;;;;;5.35;2.03;;;7.30;99.90;;;6.66;100.00;97638.00;4998011;28;20119;-37
2023/12/27 09:37:32;;;;;;;7.10;2.35;;;7.30;99.90;;;6.55;100.00;97639.94;4994978;28;20466;-37
2023/12/27 09:39:57;;;;;;;8.02;2.22;;;7.20;99.90;;;6.43;100.00;97645.38;5001815;28;20030;-37
2023/12/27 09:42:23;;;;;;;4.15;2.22;;;7.10;99.90;;;6.24;100.00;97645.66;4993053;28;20036;-38
2023/12/27 09:44:51;;;;;;;5.15;2.10;;;6.90;99.90;;;6.13;100.00;97641.50;4989776;28;20040;-37
2023/12/27 09:47:17;;;;;;;6.32;2.40;;;6.80;99.90;;;6.05;100.00;97654.72;4998302;28;20037;-37
2023/12/27 09:49:43;;;;;;;6.03;2.58;;;6.70;99.90;;;6.00;100.00;97656.53;4996737;28;20034;-36
2023/12/27 09:52:09;;;;;;;3.90;1.90;;;6.70;99.90;;;5.91;100.00;97650.47;5001258;28;20128;-36
2023/12/27 09:54:35;;;;;;;8.30;2.42;;;6.60;99.90;;;5.92;100.00;97651.34;4992100;28;20529;-35
2023/12/27 09:57:04;;;;;;;8.05;2.53;;;6.60;99.90;;;5.88;100.00;97644.44;4992569;28;20058;-35
2023/12/27 09:59:34;;;;;;;4.85;2.40;;;6.60;99.90;;;5.95;100.00;97640.84;4996143;28;20072;-37
2023/12/27 10:02:02;;;;;;;6.70;2.75;;;6.60;99.90;;;5.95;100.00;97642.59;4998653;28;20045;-37
2023/12/27 10:05:15;;;;;;;7.53;2.60;;;6.60;99.90;;;6.00;100.00;97646.91;4989671;28;20034;-37
2023/12/27 10:07:41;;;;;;;;;;;6.60;99.90;;;6.05;100.00;97628.53;4996034;28;20444;-37
2023/12/27 10:10:10;;;;;;;4.30;2.42;;;6.70;99.90;;;6.11;100.00;97631.88;4994757;28;20295;-37
2023/12/27 10:12:36;;;;;;;3.88;2.30;;;6.80;99.90;;;6.19;100.00;97628.28;5000041;28;20241;-37
2023/12/27 10:15:02;;;;;;;5.75;2.10;;;6.90;99.90;;;6.28;100.00;97626.41;4992823;28;20033;-37
2023/12/27 10:17:28;;;;;;;7.63;2.40;;;7.00;99.90;;;6.44;100.00;97626.13;4990850;28;20037;-37
2023/12/27 10:19:53;;;;;;;5.57;2.75;;;7.10;99.90;;;6.63;100.00;97621.44;4990830;28;20057;-37
2023/12/27 10:22:19;;;;;;;4.75;2.20;;;7.30;99.90;;;6.84;100.00;97602.72;4993521;28;20033;-37